• Join FlightAware (Why Join?)
  • Login
  • US Flag 
09:12AM EDT


 

Airport Tracker/Info


-or-


 

Live Flight TrackerFlight Track Log ✈ UAL3835 ✈ 30-Apr-2013 ✈ KEWR - KPIT

Flight Track Log - Related Links

Times and Time Zones

All times are in EDT time to prevent confusion due to time zone crossing. See the UAL3835 flight status page for this flight to view local times or setup timezone preferences in your user account.

Time Position Orientation Groundspeed Altitude Reporting Facility
EDT Latitude Longitude Course Direction KTS MPH feet Rate Location/Type
06:56AM 40.7167 -74.1333 14° North 172 198 1,800  Level New York TRACON
06:57AM 40.7667 -74.1167 14° North 258 297 3,300 2,100 Climbing New York TRACON
06:58AM 40.7833 -74.2167 282° West 264 304 5,800 2,400 Climbing New York TRACON
06:59AM 40.8000 -74.3167 282° West 283 326 8,100 2,280 Climbing New York TRACON
07:00AM 40.8000 -74.4167 270° West 286 329 10,400 1,620 Climbing New York TRACON
07:01AM 40.8000 -74.5167 270° West 317 365 11,300 900 Climbing New York TRACON
07:02AM 40.8000 -74.6500 270° West 357 411 12,300 900 Climbing New York TRACON
07:03AM 40.8033 -74.7350 273° West 366 421 12,900 1,200 Climbing New York Center
07:04AM 40.8028 -74.8722 270° West 366 421 14,300 1,260 Climbing New York Center
07:05AM 40.8028 -74.9956 270° West 376 433 15,400 1,140 Climbing New York Center
07:06AM 40.8019 -75.1297 270° West 376 433 16,600 1,260 Climbing New York Center
07:07AM 40.7797 -75.2819 259° West 376 433 18,000 1,140 Climbing New York Center
07:08AM 40.7558 -75.4089 256° West 376 433 18,900 1,020 Climbing New York Center
07:09AM 40.7092 -75.5372 244° Southwest 377 434 20,100 1,200 Climbing New York Center
07:10AM 40.6625 -75.6600 243° Southwest 383 441 21,300 1,140 Climbing New York Center
07:11AM 40.6153 -75.7906 245° Southwest 393 452 22,400 1,020 Climbing New York Center
07:12AM 40.5683 -75.9156 244° Southwest 398 458 23,400 960 Climbing New York Center
07:13AM 40.5169 -76.0372 241° Southwest 403 464 24,400 1,140 Climbing New York Center
07:14AM 40.4675 -76.1644 243° Southwest 403 464 25,700 1,200 Climbing New York Center
07:15AM 40.4222 -76.2892 245° Southwest 393 452 26,900 1,140 Climbing New York Center
07:16AM 40.3786 -76.4164 246° West 393 452 28,000 540 Climbing New York Center
07:17AM 40.3431 -76.5469 250° West 393 452 28,000 -240 Level New York Center
07:18AM 40.3069 -76.6883 252° West 399 459 27,600 -900 Descending New York Center
07:19AM 40.2706 -76.8319 252° West 411 473 26,300 -840 Descending New York Center
07:20AM 40.2339 -76.9758 252° West 423 487 26,000 -180 Descending New York Center
07:21AM 40.1947 -77.1217 251° West 423 487 26,000  Level New York Center
07:22AM 40.1558 -77.2650 250° West 417 480 26,000 -60 Level New York Center
07:24AM 40.0847 -77.5383 251° West 420 483 25,900 -780 Descending Cleveland Center
07:25AM 40.0469 -77.6839 251° West 420 483 23,800 -1,980 Descending Cleveland Center
07:26AM 40.0086 -77.8183 250° West 414 476 22,000 -900 Descending Cleveland Center
07:27AM 39.9764 -77.9497 252° West 401 461 22,000  Level Cleveland Center
07:28AM 39.9753 -78.0906 269° West 381 438 22,000  Level Cleveland Center
07:29AM 39.9803 -78.2339 273° West 394 453 22,000  Level Cleveland Center
07:30AM 39.9919 -78.3989 275° West 407 468 22,000  Level Cleveland Center
07:31AM 40.0156 -78.5419 282° West 412 474 22,000  Level Cleveland Center
07:32AM 40.0367 -78.6850 281° West 407 468 22,000 -120 Level Cleveland Center
07:33AM 40.0600 -78.8281 282° West 407 468 21,800 -1,260 Descending Cleveland Center
07:34AM 40.0808 -78.9714 281° West 407 468 19,500 -2,340 Descending Cleveland Center
07:35AM 40.1014 -79.1067 281° West 402 463 17,200 -2,400 Descending Cleveland Center
07:36AM 40.1217 -79.2336 282° West 389 448 14,800 -2,280 Descending Cleveland Center
07:37AM 40.1419 -79.3528 283° West 375 432 12,700 -2,100 Descending Cleveland Center
07:38AM 40.1619 -79.4800 282° West 370 426 10,600 -1,380 Descending Cleveland Center
07:39AM 40.1819 -79.6183 281° West 370 426 10,000 -300 Descending Cleveland Center
07:40AM 40.2183 -79.7294 293° West 358 412 10,000  Level Cleveland Center
07:41AM 40.2628 -79.8267 301° West 340 391 10,000  Level Cleveland Center
07:42AM 40.3133 -79.9458 299° West 346 398 10,000 -360 Level Cleveland Center
07:43AM 40.3494 -80.0356 298° West 313 360 9,300 -1,080 Descending Cleveland Center
07:44AM 40.3811 -80.1225 296° West 278 320 7,900 -1,440 Descending Cleveland Center
07:45AM 40.3939 -80.2206 280° West 268 308 6,500 -1,500 Descending Cleveland Center
07:46AM 40.3983 -80.3158 274° West 274 315 4,900 -1,200 Descending Cleveland Center
07:47AM 40.4028 -80.4003 274° West 259 298 4,100 -840 Descending Cleveland Center
07:49AM 40.4915 -80.2329 55° Northeast  Level Estimated
07:56AM 40.4915 -80.2329 339° North  Level Estimated